sensor_id;sensor_type;location;lat;lon;timestamp;pressure;altitude;pressure_sealevel;temperature
15079;BMP180;6932;51.438;5.470;2023-01-29T00:00:06;102635.00;;;6.50
15079;BMP180;6932;51.438;5.470;2023-01-29T00:02:35;102635.00;;;6.50
15079;BMP180;6932;51.438;5.470;2023-01-29T00:05:03;102639.00;;;6.50
15079;BMP180;6932;51.438;5.470;2023-01-29T00:07:30;102644.00;;;6.50
15079;BMP180;6932;51.438;5.470;2023-01-29T00:09:55;102644.00;;;6.50
15079;BMP180;6932;51.438;5.470;2023-01-29T00:12:21;102644.00;;;6.50
15079;BMP180;6932;51.438;5.470;2023-01-29T00:14:48;102622.00;;;6.50
15079;BMP180;6932;51.438;5.470;2023-01-29T00:17:14;102629.00;;;6.50
15079;BMP180;6932;51.438;5.470;2023-01-29T00:19:39;102618.00;;;6.50
15079;BMP180;6932;51.438;5.470;2023-01-29T00:22:05;102623.00;;;6.50
15079;BMP180;6932;51.438;5.470;2023-01-29T00:24:31;102624.00;;;6.50
15079;BMP180;6932;51.438;5.470;2023-01-29T00:26:57;102628.00;;;6.50
15079;BMP180;6932;51.438;5.470;2023-01-29T00:29:22;102620.00;;;6.50
15079;BMP180;6932;51.438;5.470;2023-01-29T00:31:48;102611.00;;;6.50
15079;BMP180;6932;51.438;5.470;2023-01-29T00:34:14;102612.00;;;6.50
15079;BMP180;6932;51.438;5.470;2023-01-29T00:36:39;102617.00;;;6.50
15079;BMP180;6932;51.438;5.470;2023-01-29T00:39:05;102617.00;;;6.40
15079;BMP180;6932;51.438;5.470;2023-01-29T00:41:36;102618.00;;;6.40
15079;BMP180;6932;51.438;5.470;2023-01-29T00:44:20;102619.00;;;6.40
15079;BMP180;6932;51.438;5.470;2023-01-29T00:47:05;102616.00;;;6.40
15079;BMP180;6932;51.438;5.470;2023-01-29T00:49:56;102613.00;;;6.40
15079;BMP180;6932;51.438;5.470;2023-01-29T00:52:22;102595.00;;;6.40
15079;BMP180;6932;51.438;5.470;2023-01-29T00:54:49;102603.00;;;6.40
15079;BMP180;6932;51.438;5.470;2023-01-29T00:57:14;102583.00;;;6.40
15079;BMP180;6932;51.438;5.470;2023-01-29T00:59:40;102573.00;;;6.40
15079;BMP180;6932;51.438;5.470;2023-01-29T01:02:06;102575.00;;;6.40
15079;BMP180;6932;51.438;5.470;2023-01-29T01:04:50;102576.00;;;6.30
15079;BMP180;6932;51.438;5.470;2023-01-29T01:07:16;102573.00;;;6.40
15079;BMP180;6932;51.438;5.470;2023-01-29T01:09:42;102579.00;;;6.30
15079;BMP180;6932;51.438;5.470;2023-01-29T01:12:27;102572.00;;;6.30
15079;BMP180;6932;51.438;5.470;2023-01-29T01:14:53;102571.00;;;6.30
15079;BMP180;6932;51.438;5.470;2023-01-29T01:17:18;102575.00;;;6.30
15079;BMP180;6932;51.438;5.470;2023-01-29T01:19:44;102577.00;;;6.30
15079;BMP180;6932;51.438;5.470;2023-01-29T01:22:10;102572.00;;;6.30
15079;BMP180;6932;51.438;5.470;2023-01-29T01:24:37;102567.00;;;6.30
15079;BMP180;6932;51.438;5.470;2023-01-29T01:27:03;102572.00;;;6.30
15079;BMP180;6932;51.438;5.470;2023-01-29T01:29:29;102584.00;;;6.40
15079;BMP180;6932;51.438;5.470;2023-01-29T01:31:54;102579.00;;;6.40
15079;BMP180;6932;51.438;5.470;2023-01-29T01:34:20;102578.00;;;6.40
15079;BMP180;6932;51.438;5.470;2023-01-29T01:36:47;102575.00;;;6.40
15079;BMP180;6932;51.438;5.470;2023-01-29T01:39:13;102586.00;;;6.40
15079;BMP180;6932;51.438;5.470;2023-01-29T01:41:38;102592.00;;;6.40
15079;BMP180;6932;51.438;5.470;2023-01-29T01:44:05;102589.00;;;6.40
15079;BMP180;6932;51.438;5.470;2023-01-29T01:46:36;102604.00;;;6.40
15079;BMP180;6932;51.438;5.470;2023-01-29T01:49:15;102590.00;;;6.40
15079;BMP180;6932;51.438;5.470;2023-01-29T01:51:47;102585.00;;;6.40
15079;BMP180;6932;51.438;5.470;2023-01-29T01:54:26;102585.00;;;6.40
15079;BMP180;6932;51.438;5.470;2023-01-29T01:57:06;102587.00;;;6.30
15079;BMP180;6932;51.438;5.470;2023-01-29T01:59:46;102589.00;;;6.30
15079;BMP180;6932;51.438;5.470;2023-01-29T02:02:14;102590.00;;;6.30
15079;BMP180;6932;51.438;5.470;2023-01-29T02:04:59;102590.00;;;6.30
15079;BMP180;6932;51.438;5.470;2023-01-29T02:07:46;102584.00;;;6.30
15079;BMP180;6932;51.438;5.470;2023-01-29T02:10:45;102587.00;;;6.30
15079;BMP180;6932;51.438;5.470;2023-01-29T02:13:13;102585.00;;;6.30
15079;BMP180;6932;51.438;5.470;2023-01-29T02:15:41;102586.00;;;6.30
15079;BMP180;6932;51.438;5.470;2023-01-29T02:18:12;102591.00;;;6.30
15079;BMP180;6932;51.438;5.470;2023-01-29T02:20:43;102592.00;;;6.30
15079;BMP180;6932;51.438;5.470;2023-01-29T02:26:34;102591.00;;;6.30
15079;BMP180;6932;51.438;5.470;2023-01-29T02:29:14;102597.00;;;6.20
15079;BMP180;6932;51.438;5.470;2023-01-29T02:35:02;102600.00;;;6.20
15079;BMP180;6932;51.438;5.470;2023-01-29T02:40:51;102602.00;;;6.20
15079;BMP180;6932;51.438;5.470;2023-01-29T02:46:12;102591.00;;;6.20
15079;BMP180;6932;51.438;5.470;2023-01-29T02:54:23;102589.00;;;6.20
15079;BMP180;6932;51.438;5.470;2023-01-29T02:56:58;102588.00;;;6.10
15079;BMP180;6932;51.438;5.470;2023-01-29T02:59:46;102586.00;;;6.10
15079;BMP180;6932;51.438;5.470;2023-01-29T03:02:20;102590.00;;;6.10
15079;BMP180;6932;51.438;5.470;2023-01-29T03:04:59;102574.00;;;6.10
15079;BMP180;6932;51.438;5.470;2023-01-29T03:07:32;102581.00;;;6.10
15079;BMP180;6932;51.438;5.470;2023-01-29T03:10:25;102572.00;;;6.10
15079;BMP180;6932;51.438;5.470;2023-01-29T03:13:31;102588.00;;;6.00
15079;BMP180;6932;51.438;5.470;2023-01-29T03:19:01;102593.00;;;6.00
15079;BMP180;6932;51.438;5.470;2023-01-29T03:21:42;102588.00;;;6.00
15079;BMP180;6932;51.438;5.470;2023-01-29T03:27:12;102580.00;;;6.00
15079;BMP180;6932;51.438;5.470;2023-01-29T03:30:00;102580.00;;;6.00
15079;BMP180;6932;51.438;5.470;2023-01-29T03:32:47;102579.00;;;6.00
15079;BMP180;6932;51.438;5.470;2023-01-29T03:35:21;102565.00;;;6.00
15079;BMP180;6932;51.438;5.470;2023-01-29T03:38:01;102565.00;;;6.00
15079;BMP180;6932;51.438;5.470;2023-01-29T03:40:35;102560.00;;;6.00
15079;BMP180;6932;51.438;5.470;2023-01-29T03:49:58;102566.00;;;6.00
15079;BMP180;6932;51.438;5.470;2023-01-29T03:52:41;102562.00;;;6.00
15079;BMP180;6932;51.438;5.470;2023-01-29T03:55:23;102557.00;;;6.00
15079;BMP180;6932;51.438;5.470;2023-01-29T04:01:02;102556.00;;;6.10
15079;BMP180;6932;51.438;5.470;2023-01-29T04:03:38;102557.00;;;6.10
15079;BMP180;6932;51.438;5.470;2023-01-29T04:06:24;102556.00;;;6.10
15079;BMP180;6932;51.438;5.470;2023-01-29T04:09:02;102560.00;;;6.10
15079;BMP180;6932;51.438;5.470;2023-01-29T04:11:29;102567.00;;;6.20
15079;BMP180;6932;51.438;5.470;2023-01-29T04:13:57;102546.00;;;6.20
15079;BMP180;6932;51.438;5.470;2023-01-29T04:16:36;102546.00;;;6.20
15079;BMP180;6932;51.438;5.470;2023-01-29T04:19:04;102542.00;;;6.20
15079;BMP180;6932;51.438;5.470;2023-01-29T04:21:31;102543.00;;;6.20
15079;BMP180;6932;51.438;5.470;2023-01-29T04:23:57;102548.00;;;6.30
15079;BMP180;6932;51.438;5.470;2023-01-29T04:29:53;102541.00;;;6.30
15079;BMP180;6932;51.438;5.470;2023-01-29T04:32:31;102536.00;;;6.30
15079;BMP180;6932;51.438;5.470;2023-01-29T04:38:36;102543.00;;;6.30
15079;BMP180;6932;51.438;5.470;2023-01-29T04:44:13;102531.00;;;6.40
15079;BMP180;6932;51.438;5.470;2023-01-29T04:46:52;102521.00;;;6.40
15079;BMP180;6932;51.438;5.470;2023-01-29T04:49:40;102525.00;;;6.40
15079;BMP180;6932;51.438;5.470;2023-01-29T04:52:14;102525.00;;;6.40
15079;BMP180;6932;51.438;5.470;2023-01-29T04:57:27;102516.00;;;6.50
15079;BMP180;6932;51.438;5.470;2023-01-29T05:00:07;102510.00;;;6.50
15079;BMP180;6932;51.438;5.470;2023-01-29T05:02:38;102507.00;;;6.50
15079;BMP180;6932;51.438;5.470;2023-01-29T05:05:06;102504.00;;;6.60
15079;BMP180;6932;51.438;5.470;2023-01-29T05:07:36;102500.00;;;6.60
15079;BMP180;6932;51.438;5.470;2023-01-29T05:10:08;102492.00;;;6.60
15079;BMP180;6932;51.438;5.470;2023-01-29T05:12:36;102485.00;;;6.60
15079;BMP180;6932;51.438;5.470;2023-01-29T05:15:09;102487.00;;;6.70
15079;BMP180;6932;51.438;5.470;2023-01-29T05:17:36;102488.00;;;6.70
15079;BMP180;6932;51.438;5.470;2023-01-29T05:20:02;102480.00;;;6.70
15079;BMP180;6932;51.438;5.470;2023-01-29T05:22:29;102495.00;;;6.70
15079;BMP180;6932;51.438;5.470;2023-01-29T05:24:55;102493.00;;;6.70
15079;BMP180;6932;51.438;5.470;2023-01-29T05:27:30;102484.00;;;6.80
15079;BMP180;6932;51.438;5.470;2023-01-29T05:30:17;102488.00;;;6.70
15079;BMP180;6932;51.438;5.470;2023-01-29T05:32:43;102480.00;;;6.80
15079;BMP180;6932;51.438;5.470;2023-01-29T05:35:09;102481.00;;;6.80
15079;BMP180;6932;51.438;5.470;2023-01-29T05:37:34;102469.00;;;6.80
15079;BMP180;6932;51.438;5.470;2023-01-29T05:40:00;102471.00;;;6.80
15079;BMP180;6932;51.438;5.470;2023-01-29T05:42:26;102470.00;;;6.90
15079;BMP180;6932;51.438;5.470;2023-01-29T05:44:52;102469.00;;;6.90
15079;BMP180;6932;51.438;5.470;2023-01-29T05:47:19;102469.00;;;6.90
15079;BMP180;6932;51.438;5.470;2023-01-29T05:49:45;102478.00;;;6.90
15079;BMP180;6932;51.438;5.470;2023-01-29T05:52:11;102483.00;;;6.90
15079;BMP180;6932;51.438;5.470;2023-01-29T05:54:36;102491.00;;;6.90
15079;BMP180;6932;51.438;5.470;2023-01-29T05:57:02;102484.00;;;6.90
15079;BMP180;6932;51.438;5.470;2023-01-29T05:59:28;102478.00;;;6.90
15079;BMP180;6932;51.438;5.470;2023-01-29T06:01:58;102485.00;;;7.00
15079;BMP180;6932;51.438;5.470;2023-01-29T06:04:24;102493.00;;;7.00
15079;BMP180;6932;51.438;5.470;2023-01-29T06:06:50;102503.00;;;7.00
15079;BMP180;6932;51.438;5.470;2023-01-29T06:09:16;102489.00;;;7.00
15079;BMP180;6932;51.438;5.470;2023-01-29T06:11:41;102500.00;;;7.00
15079;BMP180;6932;51.438;5.470;2023-01-29T06:14:07;102495.00;;;7.00
15079;BMP180;6932;51.438;5.470;2023-01-29T06:16:33;102496.00;;;7.00
15079;BMP180;6932;51.438;5.470;2023-01-29T06:18:59;102496.00;;;7.10
15079;BMP180;6932;51.438;5.470;2023-01-29T06:21:24;102500.00;;;7.10
15079;BMP180;6932;51.438;5.470;2023-01-29T06:23:52;102503.00;;;7.10
15079;BMP180;6932;51.438;5.470;2023-01-29T06:26:18;102511.00;;;7.10
15079;BMP180;6932;51.438;5.470;2023-01-29T06:28:48;102510.00;;;7.10
15079;BMP180;6932;51.438;5.470;2023-01-29T06:31:14;102521.00;;;7.10
15079;BMP180;6932;51.438;5.470;2023-01-29T06:33:40;102518.00;;;7.10
15079;BMP180;6932;51.438;5.470;2023-01-29T06:36:06;102508.00;;;7.10
15079;BMP180;6932;51.438;5.470;2023-01-29T06:38:32;102491.00;;;7.20
15079;BMP180;6932;51.438;5.470;2023-01-29T06:40:58;102479.00;;;7.20
15079;BMP180;6932;51.438;5.470;2023-01-29T06:43:24;102470.00;;;7.20
15079;BMP180;6932;51.438;5.470;2023-01-29T06:45:55;102471.00;;;7.20
15079;BMP180;6932;51.438;5.470;2023-01-29T06:48:23;102462.00;;;7.20
15079;BMP180;6932;51.438;5.470;2023-01-29T06:50:49;102469.00;;;7.20
15079;BMP180;6932;51.438;5.470;2023-01-29T06:53:16;102472.00;;;7.20
15079;BMP180;6932;51.438;5.470;2023-01-29T06:55:50;102481.00;;;7.20
15079;BMP180;6932;51.438;5.470;2023-01-29T06:58:15;102471.00;;;7.20
15079;BMP180;6932;51.438;5.470;2023-01-29T07:00:41;102467.00;;;7.20
15079;BMP180;6932;51.438;5.470;2023-01-29T07:03:08;102466.00;;;7.20
15079;BMP180;6932;51.438;5.470;2023-01-29T07:05:35;102466.00;;;7.20
15079;BMP180;6932;51.438;5.470;2023-01-29T07:08:01;102462.00;;;7.30
15079;BMP180;6932;51.438;5.470;2023-01-29T07:10:27;102463.00;;;7.30
15079;BMP180;6932;51.438;5.470;2023-01-29T07:12:53;102458.00;;;7.20
15079;BMP180;6932;51.438;5.470;2023-01-29T07:15:18;102451.00;;;7.20
15079;BMP180;6932;51.438;5.470;2023-01-29T07:17:57;102458.00;;;7.30
15079;BMP180;6932;51.438;5.470;2023-01-29T07:20:25;102459.00;;;7.30
15079;BMP180;6932;51.438;5.470;2023-01-29T07:22:51;102462.00;;;7.20
15079;BMP180;6932;51.438;5.470;2023-01-29T07:25:17;102464.00;;;7.30
15079;BMP180;6932;51.438;5.470;2023-01-29T07:27:43;102456.00;;;7.30
15079;BMP180;6932;51.438;5.470;2023-01-29T07:30:10;102474.00;;;7.30
15079;BMP180;6932;51.438;5.470;2023-01-29T07:32:36;102473.00;;;7.30
15079;BMP180;6932;51.438;5.470;2023-01-29T07:35:02;102459.00;;;7.30
15079;BMP180;6932;51.438;5.470;2023-01-29T07:37:28;102465.00;;;7.30
15079;BMP180;6932;51.438;5.470;2023-01-29T07:39:54;102476.00;;;7.30
15079;BMP180;6932;51.438;5.470;2023-01-29T07:42:19;102468.00;;;7.30
15079;BMP180;6932;51.438;5.470;2023-01-29T07:44:45;102453.00;;;7.30
15079;BMP180;6932;51.438;5.470;2023-01-29T07:47:11;102450.00;;;7.30
15079;BMP180;6932;51.438;5.470;2023-01-29T07:49:36;102447.00;;;7.30
15079;BMP180;6932;51.438;5.470;2023-01-29T07:52:02;102442.00;;;7.30
15079;BMP180;6932;51.438;5.470;2023-01-29T07:54:29;102455.00;;;7.30
15079;BMP180;6932;51.438;5.470;2023-01-29T07:56:55;102467.00;;;7.30
15079;BMP180;6932;51.438;5.470;2023-01-29T07:59:21;102465.00;;;7.40
15079;BMP180;6932;51.438;5.470;2023-01-29T08:01:47;102469.00;;;7.40
15079;BMP180;6932;51.438;5.470;2023-01-29T08:04:12;102476.00;;;7.40
15079;BMP180;6932;51.438;5.470;2023-01-29T08:06:38;102462.00;;;7.30
15079;BMP180;6932;51.438;5.470;2023-01-29T08:09:04;102451.00;;;7.40
15079;BMP180;6932;51.438;5.470;2023-01-29T08:11:30;102464.00;;;7.40
15079;BMP180;6932;51.438;5.470;2023-01-29T08:13:55;102462.00;;;7.40
15079;BMP180;6932;51.438;5.470;2023-01-29T08:16:22;102442.00;;;7.40
15079;BMP180;6932;51.438;5.470;2023-01-29T08:18:47;102456.00;;;7.40
15079;BMP180;6932;51.438;5.470;2023-01-29T08:21:14;102450.00;;;7.40
15079;BMP180;6932;51.438;5.470;2023-01-29T08:23:40;102452.00;;;7.40
15079;BMP180;6932;51.438;5.470;2023-01-29T08:26:06;102458.00;;;7.40
15079;BMP180;6932;51.438;5.470;2023-01-29T08:28:32;102448.00;;;7.40
15079;BMP180;6932;51.438;5.470;2023-01-29T08:30:57;102449.00;;;7.40
15079;BMP180;6932;51.438;5.470;2023-01-29T08:33:23;102463.00;;;7.40
15079;BMP180;6932;51.438;5.470;2023-01-29T08:35:52;102442.00;;;7.40
15079;BMP180;6932;51.438;5.470;2023-01-29T08:38:18;102443.00;;;7.40
15079;BMP180;6932;51.438;5.470;2023-01-29T08:40:44;102438.00;;;7.50
15079;BMP180;6932;51.438;5.470;2023-01-29T08:43:12;102441.00;;;7.40
15079;BMP180;6932;51.438;5.470;2023-01-29T08:45:41;102445.00;;;7.50
15079;BMP180;6932;51.438;5.470;2023-01-29T08:48:08;102447.00;;;7.50
15079;BMP180;6932;51.438;5.470;2023-01-29T08:50:34;102436.00;;;7.50
15079;BMP180;6932;51.438;5.470;2023-01-29T08:53:03;102428.00;;;7.50
15079;BMP180;6932;51.438;5.470;2023-01-29T08:55:29;102417.00;;;7.50
15079;BMP180;6932;51.438;5.470;2023-01-29T08:57:55;102422.00;;;7.50
15079;BMP180;6932;51.438;5.470;2023-01-29T09:00:24;102421.00;;;7.50
15079;BMP180;6932;51.438;5.470;2023-01-29T09:02:50;102430.00;;;7.50
15079;BMP180;6932;51.438;5.470;2023-01-29T09:05:16;102420.00;;;7.50
15079;BMP180;6932;51.438;5.470;2023-01-29T09:07:41;102430.00;;;7.50
15079;BMP180;6932;51.438;5.470;2023-01-29T09:10:08;102432.00;;;7.50
15079;BMP180;6932;51.438;5.470;2023-01-29T09:12:34;102437.00;;;7.50
15079;BMP180;6932;51.438;5.470;2023-01-29T09:14:59;102429.00;;;7.50
15079;BMP180;6932;51.438;5.470;2023-01-29T09:17:25;102439.00;;;7.60
15079;BMP180;6932;51.438;5.470;2023-01-29T09:19:51;102428.00;;;7.60
15079;BMP180;6932;51.438;5.470;2023-01-29T09:22:18;102421.00;;;7.60
15079;BMP180;6932;51.438;5.470;2023-01-29T09:24:44;102419.00;;;7.60
15079;BMP180;6932;51.438;5.470;2023-01-29T09:27:10;102412.00;;;7.60
15079;BMP180;6932;51.438;5.470;2023-01-29T09:29:36;102414.00;;;7.60
15079;BMP180;6932;51.438;5.470;2023-01-29T09:32:03;102410.00;;;7.70
15079;BMP180;6932;51.438;5.470;2023-01-29T09:34:29;102415.00;;;7.70
15079;BMP180;6932;51.438;5.470;2023-01-29T09:36:55;102405.00;;;7.70
15079;BMP180;6932;51.438;5.470;2023-01-29T09:39:20;102411.00;;;7.70
15079;BMP180;6932;51.438;5.470;2023-01-29T09:44:37;102405.00;;;7.70
15079;BMP180;6932;51.438;5.470;2023-01-29T09:47:13;102407.00;;;7.70
15079;BMP180;6932;51.438;5.470;2023-01-29T09:49:51;102422.00;;;7.70
15079;BMP180;6932;51.438;5.470;2023-01-29T09:52:32;102412.00;;;7.70
15079;BMP180;6932;51.438;5.470;2023-01-29T09:55:30;102409.00;;;7.70
15079;BMP180;6932;51.438;5.470;2023-01-29T09:58:27;102402.00;;;7.70
15079;BMP180;6932;51.438;5.470;2023-01-29T10:09:40;102401.00;;;7.70
15079;BMP180;6932;51.438;5.470;2023-01-29T10:15:16;102417.00;;;7.70
15079;BMP180;6932;51.438;5.470;2023-01-29T10:23:53;102416.00;;;7.80
15079;BMP180;6932;51.438;5.470;2023-01-29T10:26:26;102433.00;;;7.80
15079;BMP180;6932;51.438;5.470;2023-01-29T10:28:55;102420.00;;;7.80
15079;BMP180;6932;51.438;5.470;2023-01-29T10:31:31;102416.00;;;7.80
15079;BMP180;6932;51.438;5.470;2023-01-29T10:36:54;102405.00;;;7.80
15079;BMP180;6932;51.438;5.470;2023-01-29T10:39:25;102404.00;;;7.90
15079;BMP180;6932;51.438;5.470;2023-01-29T10:45:14;102398.00;;;7.90
15079;BMP180;6932;51.438;5.470;2023-01-29T10:53:56;102397.00;;;8.00
15079;BMP180;6932;51.438;5.470;2023-01-29T11:02:17;102390.00;;;8.00
15079;BMP180;6932;51.438;5.470;2023-01-29T11:04:44;102381.00;;;8.10
15079;BMP180;6932;51.438;5.470;2023-01-29T11:07:12;102384.00;;;8.10
15079;BMP180;6932;51.438;5.470;2023-01-29T11:10:02;102370.00;;;8.10
15079;BMP180;6932;51.438;5.470;2023-01-29T11:12:30;102360.00;;;8.10
15079;BMP180;6932;51.438;5.470;2023-01-29T11:15:27;102359.00;;;8.20
15079;BMP180;6932;51.438;5.470;2023-01-29T11:20:31;102342.00;;;8.20
15079;BMP180;6932;51.438;5.470;2023-01-29T11:22:58;102344.00;;;8.30
15079;BMP180;6932;51.438;5.470;2023-01-29T11:25:24;102343.00;;;8.30
15079;BMP180;6932;51.438;5.470;2023-01-29T11:27:57;102338.00;;;8.30
15079;BMP180;6932;51.438;5.470;2023-01-29T11:30:36;102334.00;;;8.30
15079;BMP180;6932;51.438;5.470;2023-01-29T11:33:21;102320.00;;;8.30
15079;BMP180;6932;51.438;5.470;2023-01-29T11:35:48;102325.00;;;8.30
15079;BMP180;6932;51.438;5.470;2023-01-29T11:38:25;102320.00;;;8.40
15079;BMP180;6932;51.438;5.470;2023-01-29T11:40:52;102307.00;;;8.40
15079;BMP180;6932;51.438;5.470;2023-01-29T11:43:30;102296.00;;;8.40
15079;BMP180;6932;51.438;5.470;2023-01-29T11:46:09;102286.00;;;8.40
15079;BMP180;6932;51.438;5.470;2023-01-29T11:48:47;102281.00;;;8.50
15079;BMP180;6932;51.438;5.470;2023-01-29T11:51:38;102269.00;;;8.50
15079;BMP180;6932;51.438;5.470;2023-01-29T11:54:15;102272.00;;;8.50
15079;BMP180;6932;51.438;5.470;2023-01-29T11:56:44;102269.00;;;8.60
15079;BMP180;6932;51.438;5.470;2023-01-29T11:59:45;102264.00;;;8.60
15079;BMP180;6932;51.438;5.470;2023-01-29T12:02:47;102249.00;;;8.60
15079;BMP180;6932;51.438;5.470;2023-01-29T12:05:18;102247.00;;;8.60
15079;BMP180;6932;51.438;5.470;2023-01-29T12:07:49;102243.00;;;8.60
15079;BMP180;6932;51.438;5.470;2023-01-29T12:10:40;102230.00;;;8.70
15079;BMP180;6932;51.438;5.470;2023-01-29T12:15:40;102220.00;;;8.70
15079;BMP180;6932;51.438;5.470;2023-01-29T12:18:48;102207.00;;;8.80
15079;BMP180;6932;51.438;5.470;2023-01-29T12:27:22;102191.00;;;8.80
15079;BMP180;6932;51.438;5.470;2023-01-29T12:30:18;102191.00;;;8.90
15079;BMP180;6932;51.438;5.470;2023-01-29T12:35:53;102170.00;;;9.00
15079;BMP180;6932;51.438;5.470;2023-01-29T12:38:22;102174.00;;;9.00
15079;BMP180;6932;51.438;5.470;2023-01-29T12:41:29;102181.00;;;9.00
15079;BMP180;6932;51.438;5.470;2023-01-29T12:44:17;102180.00;;;9.00
15079;BMP180;6932;51.438;5.470;2023-01-29T12:46:51;102169.00;;;9.10
15079;BMP180;6932;51.438;5.470;2023-01-29T12:49:24;102164.00;;;9.10
15079;BMP180;6932;51.438;5.470;2023-01-29T12:52:08;102164.00;;;9.10
15079;BMP180;6932;51.438;5.470;2023-01-29T12:54:52;102164.00;;;9.10
15079;BMP180;6932;51.438;5.470;2023-01-29T12:57:23;102148.00;;;9.10
15079;BMP180;6932;51.438;5.470;2023-01-29T13:00:02;102151.00;;;9.20
15079;BMP180;6932;51.438;5.470;2023-01-29T13:05:29;102156.00;;;9.20
15079;BMP180;6932;51.438;5.470;2023-01-29T13:08:08;102155.00;;;9.20
15079;BMP180;6932;51.438;5.470;2023-01-29T13:10:42;102148.00;;;9.30
15079;BMP180;6932;51.438;5.470;2023-01-29T13:13:57;102154.00;;;9.30
15079;BMP180;6932;51.438;5.470;2023-01-29T13:16:36;102145.00;;;9.30
15079;BMP180;6932;51.438;5.470;2023-01-29T13:21:44;102136.00;;;9.30
15079;BMP180;6932;51.438;5.470;2023-01-29T13:24:16;102131.00;;;9.30
15079;BMP180;6932;51.438;5.470;2023-01-29T13:26:47;102125.00;;;9.30
15079;BMP180;6932;51.438;5.470;2023-01-29T13:29:23;102132.00;;;9.30
15079;BMP180;6932;51.438;5.470;2023-01-29T13:31:53;102119.00;;;9.30
15079;BMP180;6932;51.438;5.470;2023-01-29T13:34:33;102119.00;;;9.40
15079;BMP180;6932;51.438;5.470;2023-01-29T13:37:10;102113.00;;;9.40
15079;BMP180;6932;51.438;5.470;2023-01-29T13:39:48;102114.00;;;9.40
15079;BMP180;6932;51.438;5.470;2023-01-29T13:42:20;102115.00;;;9.40
15079;BMP180;6932;51.438;5.470;2023-01-29T13:44:50;102105.00;;;9.40
15079;BMP180;6932;51.438;5.470;2023-01-29T13:47:27;102102.00;;;9.40
15079;BMP180;6932;51.438;5.470;2023-01-29T13:49:57;102095.00;;;9.40
15079;BMP180;6932;51.438;5.470;2023-01-29T13:52:35;102095.00;;;9.40
15079;BMP180;6932;51.438;5.470;2023-01-29T13:55:33;102095.00;;;9.40
15079;BMP180;6932;51.438;5.470;2023-01-29T13:58:02;102093.00;;;9.40
15079;BMP180;6932;51.438;5.470;2023-01-29T14:07:59;102093.00;;;9.40
15079;BMP180;6932;51.438;5.470;2023-01-29T14:10:29;102095.00;;;9.50
15079;BMP180;6932;51.438;5.470;2023-01-29T14:18:27;102083.00;;;9.40
15079;BMP180;6932;51.438;5.470;2023-01-29T14:21:04;102084.00;;;9.40
15079;BMP180;6932;51.438;5.470;2023-01-29T14:23:50;102077.00;;;9.40
15079;BMP180;6932;51.438;5.470;2023-01-29T14:34:22;102073.00;;;9.40
15079;BMP180;6932;51.438;5.470;2023-01-29T14:36:54;102066.00;;;9.50
15079;BMP180;6932;51.438;5.470;2023-01-29T14:39:40;102061.00;;;9.50
15079;BMP180;6932;51.438;5.470;2023-01-29T14:44:56;102059.00;;;9.50
15079;BMP180;6932;51.438;5.470;2023-01-29T14:50:36;102064.00;;;9.50
15079;BMP180;6932;51.438;5.470;2023-01-29T14:52:50;102053.00;;;9.50
15079;BMP180;6932;51.438;5.470;2023-01-29T14:55:30;102063.00;;;9.50
15079;BMP180;6932;51.438;5.470;2023-01-29T14:58:02;102049.00;;;9.50
15079;BMP180;6932;51.438;5.470;2023-01-29T15:00:33;102062.00;;;9.50
15079;BMP180;6932;51.438;5.470;2023-01-29T15:03:04;102053.00;;;9.50
15079;BMP180;6932;51.438;5.470;2023-01-29T15:05:38;102058.00;;;9.60
15079;BMP180;6932;51.438;5.470;2023-01-29T15:08:34;102041.00;;;9.60
15079;BMP180;6932;51.438;5.470;2023-01-29T15:11:13;101957.00;;;9.60
15079;BMP180;6932;51.438;5.470;2023-01-29T15:17:14;101951.00;;;9.20
15079;BMP180;6932;51.438;5.470;2023-01-29T15:19:45;101943.00;;;8.90
15079;BMP180;6932;51.438;5.470;2023-01-29T15:22:20;101949.00;;;8.80
15079;BMP180;6932;51.438;5.470;2023-01-29T15:25:22;101957.00;;;8.60
15079;BMP180;6932;51.438;5.470;2023-01-29T15:27:48;102033.00;;;8.50
15079;BMP180;6932;51.438;5.470;2023-01-29T15:30:28;102031.00;;;8.50
15079;BMP180;6932;51.438;5.470;2023-01-29T15:32:56;102030.00;;;8.60
15079;BMP180;6932;51.438;5.470;2023-01-29T15:35:30;102031.00;;;8.80
15079;BMP180;6932;51.438;5.470;2023-01-29T15:38:06;102030.00;;;8.90
15079;BMP180;6932;51.438;5.470;2023-01-29T15:40:38;102029.00;;;9.00
15079;BMP180;6932;51.438;5.470;2023-01-29T15:43:27;102027.00;;;9.10
15079;BMP180;6932;51.438;5.470;2023-01-29T15:45:59;102011.00;;;9.20
15079;BMP180;6932;51.438;5.470;2023-01-29T15:48:39;102018.00;;;9.30
15079;BMP180;6932;51.438;5.470;2023-01-29T15:51:09;102018.00;;;9.40
15079;BMP180;6932;51.438;5.470;2023-01-29T15:54:05;102011.00;;;9.40
15079;BMP180;6932;51.438;5.470;2023-01-29T15:56:39;102002.00;;;9.50
15079;BMP180;6932;51.438;5.470;2023-01-29T15:59:15;101997.00;;;9.50
15079;BMP180;6932;51.438;5.470;2023-01-29T16:01:42;101995.00;;;9.50
15079;BMP180;6932;51.438;5.470;2023-01-29T16:04:15;101985.00;;;9.60
15079;BMP180;6932;51.438;5.470;2023-01-29T16:06:43;101977.00;;;9.60
15079;BMP180;6932;51.438;5.470;2023-01-29T16:09:19;101981.00;;;9.70
15079;BMP180;6932;51.438;5.470;2023-01-29T16:11:47;101981.00;;;9.70
15079;BMP180;6932;51.438;5.470;2023-01-29T16:14:16;101967.00;;;9.70
15079;BMP180;6932;51.438;5.470;2023-01-29T16:16:43;101975.00;;;9.70
15079;BMP180;6932;51.438;5.470;2023-01-29T16:19:21;101980.00;;;9.70
15079;BMP180;6932;51.438;5.470;2023-01-29T16:22:00;101970.00;;;9.70
15079;BMP180;6932;51.438;5.470;2023-01-29T16:24:28;101980.00;;;9.70
15079;BMP180;6932;51.438;5.470;2023-01-29T16:27:10;101968.00;;;9.70
15079;BMP180;6932;51.438;5.470;2023-01-29T16:29:37;101957.00;;;9.70
15079;BMP180;6932;51.438;5.470;2023-01-29T16:32:04;101966.00;;;9.70
15079;BMP180;6932;51.438;5.470;2023-01-29T16:34:40;101955.00;;;9.70
15079;BMP180;6932;51.438;5.470;2023-01-29T16:37:24;101951.00;;;9.70
15079;BMP180;6932;51.438;5.470;2023-01-29T16:39:51;101953.00;;;9.70
15079;BMP180;6932;51.438;5.470;2023-01-29T16:47:39;101942.00;;;9.70
15079;BMP180;6932;51.438;5.470;2023-01-29T16:55:46;101953.00;;;9.70
15079;BMP180;6932;51.438;5.470;2023-01-29T16:58:20;101956.00;;;9.70
15079;BMP180;6932;51.438;5.470;2023-01-29T17:00:51;101954.00;;;9.70
15079;BMP180;6932;51.438;5.470;2023-01-29T17:03:19;101953.00;;;9.70
15079;BMP180;6932;51.438;5.470;2023-01-29T17:05:45;101940.00;;;9.70
15079;BMP180;6932;51.438;5.470;2023-01-29T17:08:26;101935.00;;;9.70
15079;BMP180;6932;51.438;5.470;2023-01-29T17:10:54;101935.00;;;9.70
15079;BMP180;6932;51.438;5.470;2023-01-29T17:13:30;101919.00;;;9.70
15079;BMP180;6932;51.438;5.470;2023-01-29T17:18:44;101930.00;;;9.70